sensor_id;sensor_type;location;lat;lon;timestamp;P1;durP1;ratioP1;P2;durP2;ratioP2
71183;SDS011;58887;51.980;4.464;2023-05-07T00:03:00;35.46;;;35.46;;
71183;SDS011;58887;51.980;4.464;2023-05-07T00:12:01;75.43;;;75.43;;
71183;SDS011;58887;51.980;4.464;2023-05-07T00:14:34;89.25;;;89.25;;
71183;SDS011;58887;51.980;4.464;2023-05-07T00:23:33;102.57;;;102.57;;
71183;SDS011;58887;51.980;4.464;2023-05-07T00:26:02;101.25;;;101.25;;
71183;SDS011;58887;51.980;4.464;2023-05-07T00:31:50;90.86;;;90.86;;
71183;SDS011;58887;51.980;4.464;2023-05-07T00:37:38;95.30;;;95.30;;
71183;SDS011;58887;51.980;4.464;2023-05-07T00:43:24;105.54;;;105.54;;
71183;SDS011;58887;51.980;4.464;2023-05-07T00:49:12;90.15;;;90.15;;
71183;SDS011;58887;51.980;4.464;2023-05-07T01:01:02;91.21;;;91.21;;
71183;SDS011;58887;51.980;4.464;2023-05-07T01:12:50;121.80;;;121.80;;
71183;SDS011;58887;51.980;4.464;2023-05-07T01:21:37;151.52;;;151.52;;
71183;SDS011;58887;51.980;4.464;2023-05-07T01:41:57;165.55;;;165.55;;
71183;SDS011;58887;51.980;4.464;2023-05-07T01:44:40;171.12;;;171.12;;
71183;SDS011;58887;51.980;4.464;2023-05-07T01:47:15;167.51;;;167.51;;
71183;SDS011;58887;51.980;4.464;2023-05-07T01:49:49;174.97;;;174.97;;
71183;SDS011;58887;51.980;4.464;2023-05-07T01:52:29;179.05;;;179.05;;
71183;SDS011;58887;51.980;4.464;2023-05-07T01:54:56;178.45;;;178.45;;
71183;SDS011;58887;51.980;4.464;2023-05-07T01:57:28;204.27;;;204.27;;
71183;SDS011;58887;51.980;4.464;2023-05-07T02:06:45;161.92;;;161.92;;
71183;SDS011;58887;51.980;4.464;2023-05-07T02:12:32;130.88;;;130.88;;
71183;SDS011;58887;51.980;4.464;2023-05-07T02:24:42;179.55;;;179.55;;
71183;SDS011;58887;51.980;4.464;2023-05-07T02:30:32;169.63;;;169.63;;
71183;SDS011;58887;51.980;4.464;2023-05-07T02:32:59;183.23;;;183.23;;
71183;SDS011;58887;51.980;4.464;2023-05-07T02:35:28;170.76;;;170.76;;
71183;SDS011;58887;51.980;4.464;2023-05-07T02:56:12;164.67;;;164.67;;
71183;SDS011;58887;51.980;4.464;2023-05-07T02:58:39;153.21;;;153.21;;
71183;SDS011;58887;51.980;4.464;2023-05-07T03:01:08;185.90;;;185.90;;
71183;SDS011;58887;51.980;4.464;2023-05-07T03:06:25;193.66;;;193.66;;
71183;SDS011;58887;51.980;4.464;2023-05-07T03:12:03;203.12;;;203.12;;
71183;SDS011;58887;51.980;4.464;2023-05-07T03:14:30;195.41;;;195.41;;
71183;SDS011;58887;51.980;4.464;2023-05-07T03:16:56;193.26;;;193.26;;
71183;SDS011;58887;51.980;4.464;2023-05-07T03:19:26;165.33;;;165.33;;
71183;SDS011;58887;51.980;4.464;2023-05-07T03:21:54;155.16;;;155.16;;
71183;SDS011;58887;51.980;4.464;2023-05-07T03:24:19;97.58;;;97.58;;
71183;SDS011;58887;51.980;4.464;2023-05-07T03:26:47;94.48;;;94.48;;
71183;SDS011;58887;51.980;4.464;2023-05-07T03:29:12;93.47;;;93.47;;
71183;SDS011;58887;51.980;4.464;2023-05-07T03:31:43;91.21;;;91.21;;
71183;SDS011;58887;51.980;4.464;2023-05-07T03:34:09;75.88;;;75.88;;
71183;SDS011;58887;51.980;4.464;2023-05-07T03:36:36;60.77;;;60.77;;
71183;SDS011;58887;51.980;4.464;2023-05-07T03:42:05;75.47;;;75.47;;
71183;SDS011;58887;51.980;4.464;2023-05-07T03:44:31;79.61;;;79.61;;
71183;SDS011;58887;51.980;4.464;2023-05-07T03:47:09;81.27;;;81.27;;
71183;SDS011;58887;51.980;4.464;2023-05-07T03:49:51;70.42;;;70.42;;
71183;SDS011;58887;51.980;4.464;2023-05-07T03:52:35;71.39;;;71.39;;
71183;SDS011;58887;51.980;4.464;2023-05-07T03:55:16;92.77;;;92.77;;
71183;SDS011;58887;51.980;4.464;2023-05-07T04:00:15;107.95;;;107.95;;
71183;SDS011;58887;51.980;4.464;2023-05-07T04:02:51;105.69;;;105.69;;
71183;SDS011;58887;51.980;4.464;2023-05-07T04:05:18;136.60;;;136.60;;
71183;SDS011;58887;51.980;4.464;2023-05-07T04:10:31;143.39;;;143.39;;
71183;SDS011;58887;51.980;4.464;2023-05-07T04:12:59;141.49;;;141.49;;
71183;SDS011;58887;51.980;4.464;2023-05-07T04:15:30;145.26;;;145.26;;
71183;SDS011;58887;51.980;4.464;2023-05-07T04:18:12;140.90;;;140.90;;
71183;SDS011;58887;51.980;4.464;2023-05-07T04:23:24;89.71;;;89.71;;
71183;SDS011;58887;51.980;4.464;2023-05-07T04:26:00;76.96;;;76.96;;
71183;SDS011;58887;51.980;4.464;2023-05-07T04:28:37;66.68;;;66.68;;
71183;SDS011;58887;51.980;4.464;2023-05-07T04:31:05;76.34;;;76.34;;
71183;SDS011;58887;51.980;4.464;2023-05-07T04:33:39;70.72;;;70.72;;
71183;SDS011;58887;51.980;4.464;2023-05-07T04:39:12;52.31;;;52.31;;
71183;SDS011;58887;51.980;4.464;2023-05-07T04:44:20;59.65;;;59.65;;
71183;SDS011;58887;51.980;4.464;2023-05-07T04:46:45;75.35;;;75.35;;
71183;SDS011;58887;51.980;4.464;2023-05-07T04:49:12;61.01;;;61.01;;
71183;SDS011;58887;51.980;4.464;2023-05-07T04:51:37;60.02;;;60.02;;
71183;SDS011;58887;51.980;4.464;2023-05-07T04:54:03;68.44;;;68.44;;
71183;SDS011;58887;51.980;4.464;2023-05-07T04:56:29;71.50;;;71.50;;
71183;SDS011;58887;51.980;4.464;2023-05-07T04:59:01;65.41;;;65.41;;
71183;SDS011;58887;51.980;4.464;2023-05-07T05:01:28;41.85;;;41.85;;
71183;SDS011;58887;51.980;4.464;2023-05-07T05:03:54;32.08;;;32.08;;
71183;SDS011;58887;51.980;4.464;2023-05-07T05:06:20;37.57;;;37.57;;
71183;SDS011;58887;51.980;4.464;2023-05-07T05:11:32;23.92;;;23.92;;
71183;SDS011;58887;51.980;4.464;2023-05-07T05:13:59;15.75;;;15.75;;
71183;SDS011;58887;51.980;4.464;2023-05-07T05:16:33;15.71;;;15.71;;
71183;SDS011;58887;51.980;4.464;2023-05-07T05:18:59;13.80;;;13.80;;
71183;SDS011;58887;51.980;4.464;2023-05-07T05:21:25;12.40;;;12.40;;
71183;SDS011;58887;51.980;4.464;2023-05-07T05:26:43;10.28;;;10.28;;
71183;SDS011;58887;51.980;4.464;2023-05-07T05:36:20;11.85;;;11.85;;
71183;SDS011;58887;51.980;4.464;2023-05-07T05:38:48;9.98;;;9.98;;
71183;SDS011;58887;51.980;4.464;2023-05-07T05:51:20;8.90;;;8.90;;
71183;SDS011;58887;51.980;4.464;2023-05-07T05:57:08;8.30;;;8.30;;
71183;SDS011;58887;51.980;4.464;2023-05-07T06:06:13;9.23;;;9.23;;
71183;SDS011;58887;51.980;4.464;2023-05-07T06:12:01;14.90;;;14.90;;
71183;SDS011;58887;51.980;4.464;2023-05-07T06:20:28;27.50;;;27.50;;
71183;SDS011;58887;51.980;4.464;2023-05-07T06:23:02;38.25;;;38.25;;
71183;SDS011;58887;51.980;4.464;2023-05-07T06:25:29;57.36;;;57.36;;
71183;SDS011;58887;51.980;4.464;2023-05-07T06:27:55;24.45;;;24.45;;
71183;SDS011;58887;51.980;4.464;2023-05-07T06:30:24;21.93;;;21.93;;
71183;SDS011;58887;51.980;4.464;2023-05-07T06:33:00;17.05;;;17.05;;
71183;SDS011;58887;51.980;4.464;2023-05-07T06:35:44;13.57;;;13.57;;
71183;SDS011;58887;51.980;4.464;2023-05-07T06:38:24;15.18;;;15.18;;
71183;SDS011;58887;51.980;4.464;2023-05-07T06:41:01;9.67;;;9.67;;
71183;SDS011;58887;51.980;4.464;2023-05-07T06:43:29;9.63;;;9.63;;
71183;SDS011;58887;51.980;4.464;2023-05-07T06:45:56;9.37;;;9.37;;
71183;SDS011;58887;51.980;4.464;2023-05-07T06:48:22;11.16;;;11.16;;
71183;SDS011;58887;51.980;4.464;2023-05-07T06:50:58;22.54;;;22.54;;
71183;SDS011;58887;51.980;4.464;2023-05-07T06:53:23;9.76;;;9.76;;
71183;SDS011;58887;51.980;4.464;2023-05-07T06:55:50;9.20;;;9.20;;
71183;SDS011;58887;51.980;4.464;2023-05-07T06:58:23;8.85;;;8.85;;
71183;SDS011;58887;51.980;4.464;2023-05-07T07:00:49;8.44;;;8.44;;
71183;SDS011;58887;51.980;4.464;2023-05-07T07:03:17;8.17;;;8.17;;
71183;SDS011;58887;51.980;4.464;2023-05-07T07:05:44;8.06;;;8.06;;
71183;SDS011;58887;51.980;4.464;2023-05-07T07:08:11;8.65;;;8.65;;
71183;SDS011;58887;51.980;4.464;2023-05-07T07:10:37;8.32;;;8.32;;
71183;SDS011;58887;51.980;4.464;2023-05-07T07:13:04;8.97;;;8.97;;
71183;SDS011;58887;51.980;4.464;2023-05-07T07:15:29;8.33;;;8.33;;
71183;SDS011;58887;51.980;4.464;2023-05-07T07:17:55;8.94;;;8.94;;
71183;SDS011;58887;51.980;4.464;2023-05-07T07:20:20;8.47;;;8.47;;
71183;SDS011;58887;51.980;4.464;2023-05-07T07:22:46;8.59;;;8.59;;
71183;SDS011;58887;51.980;4.464;2023-05-07T07:25:15;7.97;;;7.97;;
71183;SDS011;58887;51.980;4.464;2023-05-07T07:27:53;8.25;;;8.25;;
71183;SDS011;58887;51.980;4.464;2023-05-07T07:30:21;8.08;;;8.08;;
71183;SDS011;58887;51.980;4.464;2023-05-07T07:32:48;7.31;;;7.31;;
71183;SDS011;58887;51.980;4.464;2023-05-07T07:35:15;7.64;;;7.64;;
71183;SDS011;58887;51.980;4.464;2023-05-07T07:37:51;7.58;;;7.58;;
71183;SDS011;58887;51.980;4.464;2023-05-07T07:40:17;6.86;;;6.86;;
71183;SDS011;58887;51.980;4.464;2023-05-07T07:42:43;6.90;;;6.90;;
71183;SDS011;58887;51.980;4.464;2023-05-07T07:45:08;6.89;;;6.89;;
71183;SDS011;58887;51.980;4.464;2023-05-07T07:47:36;6.22;;;6.22;;
71183;SDS011;58887;51.980;4.464;2023-05-07T07:50:01;7.09;;;7.09;;
71183;SDS011;58887;51.980;4.464;2023-05-07T07:52:28;6.77;;;6.77;;
71183;SDS011;58887;51.980;4.464;2023-05-07T07:54:53;6.47;;;6.47;;
71183;SDS011;58887;51.980;4.464;2023-05-07T07:59:47;6.91;;;6.91;;
71183;SDS011;58887;51.980;4.464;2023-05-07T08:02:15;7.29;;;7.29;;
71183;SDS011;58887;51.980;4.464;2023-05-07T08:04:40;7.42;;;7.42;;
71183;SDS011;58887;51.980;4.464;2023-05-07T08:07:09;7.46;;;7.46;;
71183;SDS011;58887;51.980;4.464;2023-05-07T08:09:42;7.04;;;7.04;;
71183;SDS011;58887;51.980;4.464;2023-05-07T08:12:07;7.22;;;7.22;;
71183;SDS011;58887;51.980;4.464;2023-05-07T08:14:33;7.21;;;7.21;;
71183;SDS011;58887;51.980;4.464;2023-05-07T08:17:06;7.62;;;7.62;;
71183;SDS011;58887;51.980;4.464;2023-05-07T08:19:34;8.99;;;8.99;;
71183;SDS011;58887;51.980;4.464;2023-05-07T08:22:00;9.70;;;9.70;;
71183;SDS011;58887;51.980;4.464;2023-05-07T08:24:25;9.55;;;9.55;;
71183;SDS011;58887;51.980;4.464;2023-05-07T08:26:51;19.40;;;19.40;;
71183;SDS011;58887;51.980;4.464;2023-05-07T08:29:17;7.76;;;7.76;;
71183;SDS011;58887;51.980;4.464;2023-05-07T08:31:43;7.65;;;7.65;;
71183;SDS011;58887;51.980;4.464;2023-05-07T08:34:10;8.48;;;8.48;;
71183;SDS011;58887;51.980;4.464;2023-05-07T08:36:36;7.99;;;7.99;;
71183;SDS011;58887;51.980;4.464;2023-05-07T08:39:01;8.37;;;8.37;;
71183;SDS011;58887;51.980;4.464;2023-05-07T08:41:27;8.32;;;8.32;;
71183;SDS011;58887;51.980;4.464;2023-05-07T08:43:53;8.46;;;8.46;;
71183;SDS011;58887;51.980;4.464;2023-05-07T08:46:27;8.03;;;8.03;;
71183;SDS011;58887;51.980;4.464;2023-05-07T08:48:58;8.97;;;8.97;;
71183;SDS011;58887;51.980;4.464;2023-05-07T08:51:24;9.79;;;9.79;;
71183;SDS011;58887;51.980;4.464;2023-05-07T08:53:50;9.08;;;9.08;;
71183;SDS011;58887;51.980;4.464;2023-05-07T08:56:16;28.14;;;28.02;;
71183;SDS011;58887;51.980;4.464;2023-05-07T08:58:43;9.47;;;9.46;;
71183;SDS011;58887;51.980;4.464;2023-05-07T09:01:10;9.10;;;9.10;;
71183;SDS011;58887;51.980;4.464;2023-05-07T09:03:38;8.97;;;8.97;;
71183;SDS011;58887;51.980;4.464;2023-05-07T09:06:06;8.76;;;8.76;;
71183;SDS011;58887;51.980;4.464;2023-05-07T09:08:32;9.58;;;9.58;;
71183;SDS011;58887;51.980;4.464;2023-05-07T09:11:00;8.68;;;8.68;;
71183;SDS011;58887;51.980;4.464;2023-05-07T09:13:25;8.02;;;8.02;;
71183;SDS011;58887;51.980;4.464;2023-05-07T09:15:52;7.72;;;7.72;;
71183;SDS011;58887;51.980;4.464;2023-05-07T09:18:21;7.93;;;7.93;;
71183;SDS011;58887;51.980;4.464;2023-05-07T09:20:52;7.90;;;7.90;;
71183;SDS011;58887;51.980;4.464;2023-05-07T09:23:20;8.14;;;8.14;;
71183;SDS011;58887;51.980;4.464;2023-05-07T09:25:47;9.23;;;9.23;;
71183;SDS011;58887;51.980;4.464;2023-05-07T09:28:14;8.46;;;8.46;;
71183;SDS011;58887;51.980;4.464;2023-05-07T09:30:39;7.89;;;7.89;;
71183;SDS011;58887;51.980;4.464;2023-05-07T09:33:21;8.05;;;8.05;;
71183;SDS011;58887;51.980;4.464;2023-05-07T09:35:48;8.56;;;8.56;;
71183;SDS011;58887;51.980;4.464;2023-05-07T09:38:21;8.74;;;8.74;;
71183;SDS011;58887;51.980;4.464;2023-05-07T09:40:47;8.82;;;8.82;;
71183;SDS011;58887;51.980;4.464;2023-05-07T09:43:13;8.13;;;8.13;;
71183;SDS011;58887;51.980;4.464;2023-05-07T09:45:39;7.22;;;7.22;;
71183;SDS011;58887;51.980;4.464;2023-05-07T09:48:06;7.79;;;7.79;;
71183;SDS011;58887;51.980;4.464;2023-05-07T09:50:34;7.79;;;7.79;;
71183;SDS011;58887;51.980;4.464;2023-05-07T09:53:03;6.92;;;6.92;;
71183;SDS011;58887;51.980;4.464;2023-05-07T09:55:29;6.82;;;6.82;;
71183;SDS011;58887;51.980;4.464;2023-05-07T09:57:56;6.42;;;6.42;;
71183;SDS011;58887;51.980;4.464;2023-05-07T10:00:24;5.94;;;5.94;;
71183;SDS011;58887;51.980;4.464;2023-05-07T10:02:52;5.42;;;5.42;;
71183;SDS011;58887;51.980;4.464;2023-05-07T10:05:19;5.35;;;5.35;;
71183;SDS011;58887;51.980;4.464;2023-05-07T10:07:48;6.78;;;6.78;;
71183;SDS011;58887;51.980;4.464;2023-05-07T10:10:24;7.08;;;7.08;;
71183;SDS011;58887;51.980;4.464;2023-05-07T10:12:52;7.01;;;7.01;;
71183;SDS011;58887;51.980;4.464;2023-05-07T10:15:23;7.07;;;7.07;;
71183;SDS011;58887;51.980;4.464;2023-05-07T10:17:53;6.99;;;6.99;;
71183;SDS011;58887;51.980;4.464;2023-05-07T10:20:21;6.79;;;6.79;;
71183;SDS011;58887;51.980;4.464;2023-05-07T10:22:48;5.37;;;5.37;;
71183;SDS011;58887;51.980;4.464;2023-05-07T10:25:18;4.55;;;4.55;;
71183;SDS011;58887;51.980;4.464;2023-05-07T10:27:57;5.93;;;5.93;;
71183;SDS011;58887;51.980;4.464;2023-05-07T10:33:36;7.37;;;7.37;;
71183;SDS011;58887;51.980;4.464;2023-05-07T10:36:04;12.19;;;12.19;;
71183;SDS011;58887;51.980;4.464;2023-05-07T10:38:42;11.21;;;11.21;;
71183;SDS011;58887;51.980;4.464;2023-05-07T10:41:10;9.39;;;9.39;;
71183;SDS011;58887;51.980;4.464;2023-05-07T10:43:39;3.34;;;3.34;;
71183;SDS011;58887;51.980;4.464;2023-05-07T10:46:16;2.86;;;2.86;;
71183;SDS011;58887;51.980;4.464;2023-05-07T10:49:09;2.65;;;2.65;;
71183;SDS011;58887;51.980;4.464;2023-05-07T10:51:39;2.48;;;2.48;;
71183;SDS011;58887;51.980;4.464;2023-05-07T10:56:41;2.93;;;2.93;;
71183;SDS011;58887;51.980;4.464;2023-05-07T11:04:44;2.39;;;2.39;;
71183;SDS011;58887;51.980;4.464;2023-05-07T11:07:26;2.21;;;2.21;;
71183;SDS011;58887;51.980;4.464;2023-05-07T11:09:54;2.57;;;2.57;;
71183;SDS011;58887;51.980;4.464;2023-05-07T11:15:06;3.03;;;3.03;;
71183;SDS011;58887;51.980;4.464;2023-05-07T11:26:09;4.15;;;4.15;;
71183;SDS011;58887;51.980;4.464;2023-05-07T11:28:42;4.35;;;4.35;;
71183;SDS011;58887;51.980;4.464;2023-05-07T11:31:09;4.46;;;4.46;;
71183;SDS011;58887;51.980;4.464;2023-05-07T11:33:39;9.26;;;9.26;;
71183;SDS011;58887;51.980;4.464;2023-05-07T11:36:07;9.34;;;9.34;;
71183;SDS011;58887;51.980;4.464;2023-05-07T11:38:39;11.87;;;11.87;;
71183;SDS011;58887;51.980;4.464;2023-05-07T11:41:07;10.65;;;10.65;;
71183;SDS011;58887;51.980;4.464;2023-05-07T11:43:34;13.84;;;13.84;;
71183;SDS011;58887;51.980;4.464;2023-05-07T11:46:09;27.80;;;27.80;;
71183;SDS011;58887;51.980;4.464;2023-05-07T11:51:08;4.55;;;4.55;;
71183;SDS011;58887;51.980;4.464;2023-05-07T11:53:47;4.69;;;4.69;;
71183;SDS011;58887;51.980;4.464;2023-05-07T11:56:14;4.84;;;4.84;;
71183;SDS011;58887;51.980;4.464;2023-05-07T11:58:42;5.04;;;5.04;;
71183;SDS011;58887;51.980;4.464;2023-05-07T12:01:09;5.06;;;5.06;;
71183;SDS011;58887;51.980;4.464;2023-05-07T12:03:45;5.26;;;5.26;;
71183;SDS011;58887;51.980;4.464;2023-05-07T12:06:14;5.20;;;5.20;;
71183;SDS011;58887;51.980;4.464;2023-05-07T12:08:42;4.82;;;4.82;;
71183;SDS011;58887;51.980;4.464;2023-05-07T12:11:14;5.06;;;5.06;;
71183;SDS011;58887;51.980;4.464;2023-05-07T12:13:46;5.65;;;5.65;;
71183;SDS011;58887;51.980;4.464;2023-05-07T12:16:12;5.89;;;5.89;;
71183;SDS011;58887;51.980;4.464;2023-05-07T12:18:39;5.61;;;5.61;;
71183;SDS011;58887;51.980;4.464;2023-05-07T12:21:05;5.41;;;5.41;;
71183;SDS011;58887;51.980;4.464;2023-05-07T12:23:32;5.38;;;5.38;;
71183;SDS011;58887;51.980;4.464;2023-05-07T12:26:00;8.16;;;8.16;;
71183;SDS011;58887;51.980;4.464;2023-05-07T12:28:26;6.46;;;6.46;;
71183;SDS011;58887;51.980;4.464;2023-05-07T12:30:52;6.41;;;6.41;;
71183;SDS011;58887;51.980;4.464;2023-05-07T12:33:28;8.54;;;8.54;;
71183;SDS011;58887;51.980;4.464;2023-05-07T12:36:02;9.55;;;9.55;;
71183;SDS011;58887;51.980;4.464;2023-05-07T12:38:34;9.56;;;9.56;;
71183;SDS011;58887;51.980;4.464;2023-05-07T12:41:03;9.78;;;9.78;;
71183;SDS011;58887;51.980;4.464;2023-05-07T12:46:05;10.63;;;10.63;;
71183;SDS011;58887;51.980;4.464;2023-05-07T12:53:45;9.15;;;9.15;;
71183;SDS011;58887;51.980;4.464;2023-05-07T12:56:18;11.19;;;11.19;;
71183;SDS011;58887;51.980;4.464;2023-05-07T12:58:45;11.86;;;11.86;;
71183;SDS011;58887;51.980;4.464;2023-05-07T13:01:14;11.13;;;11.13;;
71183;SDS011;58887;51.980;4.464;2023-05-07T13:04:00;8.01;;;8.01;;
71183;SDS011;58887;51.980;4.464;2023-05-07T13:06:29;7.71;;;7.71;;
71183;SDS011;58887;51.980;4.464;2023-05-07T13:08:58;7.79;;;7.79;;
71183;SDS011;58887;51.980;4.464;2023-05-07T13:11:24;9.00;;;9.00;;
71183;SDS011;58887;51.980;4.464;2023-05-07T13:13:51;11.04;;;11.04;;
71183;SDS011;58887;51.980;4.464;2023-05-07T13:18:55;15.59;;;15.59;;
71183;SDS011;58887;51.980;4.464;2023-05-07T13:21:31;9.95;;;9.95;;
71183;SDS011;58887;51.980;4.464;2023-05-07T13:24:05;9.84;;;9.84;;
71183;SDS011;58887;51.980;4.464;2023-05-07T13:29:01;9.40;;;9.40;;
71183;SDS011;58887;51.980;4.464;2023-05-07T13:31:27;9.87;;;9.87;;
71183;SDS011;58887;51.980;4.464;2023-05-07T13:33:54;10.00;;;10.00;;
71183;SDS011;58887;51.980;4.464;2023-05-07T13:36:23;9.99;;;9.99;;
71183;SDS011;58887;51.980;4.464;2023-05-07T13:38:48;9.77;;;9.77;;
71183;SDS011;58887;51.980;4.464;2023-05-07T13:41:16;10.10;;;10.10;;
71183;SDS011;58887;51.980;4.464;2023-05-07T13:43:41;10.16;;;10.16;;
71183;SDS011;58887;51.980;4.464;2023-05-07T13:46:08;10.64;;;10.64;;
71183;SDS011;58887;51.980;4.464;2023-05-07T13:48:35;10.92;;;10.92;;
71183;SDS011;58887;51.980;4.464;2023-05-07T13:51:00;10.42;;;10.42;;
71183;SDS011;58887;51.980;4.464;2023-05-07T13:56:34;11.22;;;11.22;;
71183;SDS011;58887;51.980;4.464;2023-05-07T13:59:04;11.79;;;11.79;;
71183;SDS011;58887;51.980;4.464;2023-05-07T14:01:30;11.62;;;11.62;;
71183;SDS011;58887;51.980;4.464;2023-05-07T14:03:56;12.34;;;12.34;;
71183;SDS011;58887;51.980;4.464;2023-05-07T14:06:23;12.11;;;12.11;;
71183;SDS011;58887;51.980;4.464;2023-05-07T14:08:49;12.29;;;12.29;;
71183;SDS011;58887;51.980;4.464;2023-05-07T14:11:15;12.85;;;12.85;;
71183;SDS011;58887;51.980;4.464;2023-05-07T14:13:40;12.14;;;12.14;;
71183;SDS011;58887;51.980;4.464;2023-05-07T14:16:05;11.60;;;11.60;;
71183;SDS011;58887;51.980;4.464;2023-05-07T14:18:31;11.22;;;11.22;;
71183;SDS011;58887;51.980;4.464;2023-05-07T14:20:58;11.00;;;11.00;;
71183;SDS011;58887;51.980;4.464;2023-05-07T14:23:24;11.04;;;11.04;;
71183;SDS011;58887;51.980;4.464;2023-05-07T14:25:51;11.46;;;11.46;;
71183;SDS011;58887;51.980;4.464;2023-05-07T14:28:18;29.07;;;29.07;;
71183;SDS011;58887;51.980;4.464;2023-05-07T14:30:43;11.74;;;11.74;;
71183;SDS011;58887;51.980;4.464;2023-05-07T14:33:10;12.57;;;12.57;;
71183;SDS011;58887;51.980;4.464;2023-05-07T14:35:39;13.27;;;13.27;;
71183;SDS011;58887;51.980;4.464;2023-05-07T14:38:19;13.93;;;13.93;;
71183;SDS011;58887;51.980;4.464;2023-05-07T14:40:45;13.52;;;13.52;;
71183;SDS011;58887;51.980;4.464;2023-05-07T14:43:11;12.38;;;12.38;;
71183;SDS011;58887;51.980;4.464;2023-05-07T14:45:37;12.82;;;12.82;;
71183;SDS011;58887;51.980;4.464;2023-05-07T14:48:09;13.55;;;13.55;;
71183;SDS011;58887;51.980;4.464;2023-05-07T14:50:52;15.42;;;15.42;;
71183;SDS011;58887;51.980;4.464;2023-05-07T14:53:17;13.29;;;13.29;;
71183;SDS011;58887;51.980;4.464;2023-05-07T14:55:43;13.48;;;13.48;;
71183;SDS011;58887;51.980;4.464;2023-05-07T14:58:14;13.48;;;13.48;;
71183;SDS011;58887;51.980;4.464;2023-05-07T15:00:42;13.23;;;13.23;;
71183;SDS011;58887;51.980;4.464;2023-05-07T15:03:09;13.41;;;13.41;;
71183;SDS011;58887;51.980;4.464;2023-05-07T15:05:37;13.42;;;13.42;;
71183;SDS011;58887;51.980;4.464;2023-05-07T15:08:03;14.03;;;14.03;;
71183;SDS011;58887;51.980;4.464;2023-05-07T15:10:36;13.52;;;13.52;;
71183;SDS011;58887;51.980;4.464;2023-05-07T15:13:08;13.96;;;13.96;;
71183;SDS011;58887;51.980;4.464;2023-05-07T15:15:35;13.56;;;13.56;;
71183;SDS011;58887;51.980;4.464;2023-05-07T15:18:01;13.60;;;13.60;;
71183;SDS011;58887;51.980;4.464;2023-05-07T15:20:27;14.52;;;14.52;;
71183;SDS011;58887;51.980;4.464;2023-05-07T15:22:52;14.46;;;14.46;;
71183;SDS011;58887;51.980;4.464;2023-05-07T15:25:18;14.56;;;14.56;;
71183;SDS011;58887;51.980;4.464;2023-05-07T15:27:43;14.13;;;14.13;;
71183;SDS011;58887;51.980;4.464;2023-05-07T15:30:09;14.63;;;14.63;;
71183;SDS011;58887;51.980;4.464;2023-05-07T15:32:36;14.22;;;14.22;;
71183;SDS011;58887;51.980;4.464;2023-05-07T15:35:03;13.94;;;13.94;;
71183;SDS011;58887;51.980;4.464;2023-05-07T15:37:30;14.21;;;14.21;;
71183;SDS011;58887;51.980;4.464;2023-05-07T15:39:57;13.84;;;13.84;;
71183;SDS011;58887;51.980;4.464;2023-05-07T15:42:22;13.56;;;13.56;;
71183;SDS011;58887;51.980;4.464;2023-05-07T15:44:48;12.58;;;12.58;;
71183;SDS011;58887;51.980;4.464;2023-05-07T15:47:14;12.87;;;12.87;;
71183;SDS011;58887;51.980;4.464;2023-05-07T15:49:40;12.09;;;12.09;;
71183;SDS011;58887;51.980;4.464;2023-05-07T15:52:06;11.48;;;11.48;;
71183;SDS011;58887;51.980;4.464;2023-05-07T15:54:35;12.16;;;12.16;;
71183;SDS011;58887;51.980;4.464;2023-05-07T15:57:00;11.37;;;11.37;;
71183;SDS011;58887;51.980;4.464;2023-05-07T15:59:26;12.48;;;12.48;;
71183;SDS011;58887;51.980;4.464;2023-05-07T16:01:52;12.78;;;12.78;;
71183;SDS011;58887;51.980;4.464;2023-05-07T16:04:17;13.15;;;13.15;;
71183;SDS011;58887;51.980;4.464;2023-05-07T16:06:43;13.09;;;13.09;;
71183;SDS011;58887;51.980;4.464;2023-05-07T16:09:11;12.87;;;12.87;;
71183;SDS011;58887;51.980;4.464;2023-05-07T16:11:37;13.34;;;13.34;;
71183;SDS011;58887;51.980;4.464;2023-05-07T16:14:03;12.75;;;12.75;;
71183;SDS011;58887;51.980;4.464;2023-05-07T16:16:31;12.87;;;12.87;;
71183;SDS011;58887;51.980;4.464;2023-05-07T16:18:57;12.45;;;12.45;;
71183;SDS011;58887;51.980;4.464;2023-05-07T16:21:23;11.99;;;11.99;;
71183;SDS011;58887;51.980;4.464;2023-05-07T16:23:48;11.33;;;11.33;;
71183;SDS011;58887;51.980;4.464;2023-05-07T16:26:15;10.66;;;10.66;;
71183;SDS011;58887;51.980;4.464;2023-05-07T16:28:41;11.24;;;11.24;;
71183;SDS011;58887;51.980;4.464;2023-05-07T16:31:07;11.93;;;11.93;;
71183;SDS011;58887;51.980;4.464;2023-05-07T16:33:33;11.64;;;11.64;;
71183;SDS011;58887;51.980;4.464;2023-05-07T16:35:59;12.25;;;12.25;;
71183;SDS011;58887;51.980;4.464;2023-05-07T16:38:25;12.51;;;12.51;;
71183;SDS011;58887;51.980;4.464;2023-05-07T16:40:52;12.95;;;12.95;;
71183;SDS011;58887;51.980;4.464;2023-05-07T16:43:18;13.35;;;13.35;;
71183;SDS011;58887;51.980;4.464;2023-05-07T16:45:44;13.80;;;13.80;;
71183;SDS011;58887;51.980;4.464;2023-05-07T16:48:11;14.06;;;14.06;;
71183;SDS011;58887;51.980;4.464;2023-05-07T16:50:36;14.84;;;14.84;;
71183;SDS011;58887;51.980;4.464;2023-05-07T16:53:04;14.85;;;14.85;;
71183;SDS011;58887;51.980;4.464;2023-05-07T16:55:30;14.26;;;14.26;;
71183;SDS011;58887;51.980;4.464;2023-05-07T16:57:59;14.96;;;14.96;;
71183;SDS011;58887;51.980;4.464;2023-05-07T17:00:25;14.49;;;14.49;;
71183;SDS011;58887;51.980;4.464;2023-05-07T17:02:50;14.58;;;14.58;;
71183;SDS011;58887;51.980;4.464;2023-05-07T17:05:17;14.43;;;14.43;;
71183;SDS011;58887;51.980;4.464;2023-05-07T17:07:43;13.97;;;13.97;;
71183;SDS011;58887;51.980;4.464;2023-05-07T17:10:09;14.31;;;14.31;;
71183;SDS011;58887;51.980;4.464;2023-05-07T17:12:35;13.20;;;13.20;;
71183;SDS011;58887;51.980;4.464;2023-05-07T17:15:01;10.89;;;10.89;;
71183;SDS011;58887;51.980;4.464;2023-05-07T17:17:27;10.82;;;10.82;;
71183;SDS011;58887;51.980;4.464;2023-05-07T17:19:53;10.35;;;10.35;;
71183;SDS011;58887;51.980;4.464;2023-05-07T17:22:18;9.85;;;9.85;;
71183;SDS011;58887;51.980;4.464;2023-05-07T17:24:44;8.99;;;8.99;;
71183;SDS011;58887;51.980;4.464;2023-05-07T17:27:09;8.22;;;8.22;;
71183;SDS011;58887;51.980;4.464;2023-05-07T17:29:35;8.10;;;8.10;;
71183;SDS011;58887;51.980;4.464;2023-05-07T17:32:00;7.74;;;7.74;;
71183;SDS011;58887;51.980;4.464;2023-05-07T17:34:26;7.58;;;7.58;;
71183;SDS011;58887;51.980;4.464;2023-05-07T17:36:51;7.59;;;7.59;;
71183;SDS011;58887;51.980;4.464;2023-05-07T17:39:17;7.41;;;7.41;;
71183;SDS011;58887;51.980;4.464;2023-05-07T17:41:42;7.40;;;7.40;;
71183;SDS011;58887;51.980;4.464;2023-05-07T17:44:08;6.86;;;6.86;;
71183;SDS011;58887;51.980;4.464;2023-05-07T17:46:33;6.93;;;6.93;;
71183;SDS011;58887;51.980;4.464;2023-05-07T17:48:59;6.97;;;6.97;;
71183;SDS011;58887;51.980;4.464;2023-05-07T17:51:24;6.82;;;6.82;;
71183;SDS011;58887;51.980;4.464;2023-05-07T17:53:51;6.03;;;6.03;;
71183;SDS011;58887;51.980;4.464;2023-05-07T17:56:16;6.40;;;6.40;;
71183;SDS011;58887;51.980;4.464;2023-05-07T17:58:42;6.48;;;6.48;;
71183;SDS011;58887;51.980;4.464;2023-05-07T18:01:07;6.58;;;6.58;;
71183;SDS011;58887;51.980;4.464;2023-05-07T18:03:33;6.63;;;6.63;;
71183;SDS011;58887;51.980;4.464;2023-05-07T18:05:58;6.72;;;6.72;;
71183;SDS011;58887;51.980;4.464;2023-05-07T18:08:24;7.00;;;7.00;;
71183;SDS011;58887;51.980;4.464;2023-05-07T18:10:50;6.97;;;6.97;;
71183;SDS011;58887;51.980;4.464;2023-05-07T18:13:15;7.15;;;7.15;;
71183;SDS011;58887;51.980;4.464;2023-05-07T18:15:41;7.32;;;7.32;;
71183;SDS011;58887;51.980;4.464;2023-05-07T18:18:09;7.33;;;7.33;;